Bookmark and Share
Track history (hours):
 

Harvest Peace

Last reported at 2014-Apr-15 05:34 UTC. Time now 2014-Apr-17 06:53 UTC.
Position N 31°30' E 031°46'.

Length 225 m; draft 12.8 m.

Type: Cargo ship. MMSI: 538004103.

NotesDate/timePositionNaut miles runAvg speedWind from/ knotsBaromVisibWave heightAir tempDewpointWater temp
2014-Apr-15 05:34N 31°30' E 031°46'7 0.9
2014-Apr-14 21:34N 31°37' E 031°48'1 0.7
2014-Apr-14 20:33N 31°36' E 031°47'0 0.3
2014-Apr-14 19:33N 31°37' E 031°47'1 0.1
2014-Apr-14 11:31N 31°37' E 031°46'  
2014-Apr-10 01:13N 36°28' E 013°46'913.8
2014-Apr-10 00:33N 36°31' E 013°35'1513.9
2014-Apr-09 23:26N 36°36' E 013°17'3213.6
2014-Apr-09 21:05N 36°46' E 012°39'2513.4
2014-Apr-09 19:14N 36°58' E 012°12'1113.7
2014-Apr-09 18:27N 37°04' E 012°01'1213.4
2014-Apr-09 17:32N 37°10' E 011°47'1313.5
2014-Apr-09 16:33N 37°15' E 011°32'1414.0
2014-Apr-09 15:33N 37°21' E 011°16'1414.0
2014-Apr-09 14:33N 37°25' E 010°59'1414.4
2014-Apr-09 13:33N 37°29' E 010°42'1514.6
2014-Apr-09 12:33N 37°32' E 010°24'1514.7
2014-Apr-09 11:33N 37°34' E 010°05'1514.6
2014-Apr-09 10:29N 37°31' E 009°46'1514.5
2014-Apr-09 09:28N 37°27' E 009°28'1514.4
2014-Apr-09 08:24N 37°22' E 009°10'1214.4
2014-Apr-09 07:33N 37°20' E 008°55'1614.2
2014-Apr-09 06:23N 37°19' E 008°34'1214.1
2014-Apr-09 05:33N 37°18' E 008°19'1514.7
2014-Apr-09 04:34N 37°17' E 008°01'10614.5
2014-Apr-08 21:14N 37°18' E 005°48'1014.5
2014-Apr-08 20:33N 37°19' E 005°35'3414.0
2014-Apr-08 18:08N 37°19' E 004°53'813.7
2014-Apr-08 17:33N 37°18' E 004°43'1413.6
2014-Apr-08 16:33N 37°15' E 004°26'1413.9
2014-Apr-08 15:33N 37°13' E 004°09'1514.6
2014-Apr-08 14:33N 37°10' E 003°51'1514.8
2014-Apr-08 13:33N 37°07' E 003°33'1515.5
2014-Apr-08 12:33N 37°05' E 003°14'1615.7
2014-Apr-08 11:33N 37°02' E 002°54'1514.9
2014-Apr-08 10:33N 36°59' E 002°36'1514.8
2014-Apr-08 09:33N 36°56' E 002°18'36110.0
2014-Apr-06 21:33N 36°06' W 005°07'8 7.8
2014-Apr-06 20:33N 36°09' W 004°58'5 3.9
2014-Apr-06 19:20N 36°11' W 005°03'1 0.5
2014-Apr-06 17:33N 36°10' W 005°03'1 0.8
2014-Apr-06 16:33N 36°09' W 005°03'5 5.5
2014-Apr-06 15:33N 36°07' W 005°09'9 8.6
2014-Apr-06 14:33N 36°02' W 005°18'9 9.2
2014-Apr-06 13:33N 35°58' W 005°28'1313.4
2014-Apr-06 12:33N 35°54' W 005°44'5613.6
2014-Apr-06 08:25N 35°54' W 006°53'1212.8
2014-Apr-06 07:28N 35°55' W 007°08'1212.7
2014-Apr-06 06:33N 35°56' W 007°22'1312.9
2014-Apr-06 05:33N 35°58' W 007°38'1813.2
2014-Apr-06 04:09N 35°59' W 008°01'813.1
2014-Apr-06 03:32N 35°60' W 008°11'1313.0
2014-Apr-06 02:31N 36°01' W 008°27'1313.1
2014-Apr-06 01:32N 36°02' W 008°43'1313.1
2014-Apr-06 00:33N 36°03' W 008°59'1513.7
2014-Apr-05 23:28N 36°04' W 009°17'1313.8
2014-Apr-05 22:33N 36°05' W 009°33'  

Dump ship's entire track history

sailing weather and tide predictions

Harvest Peace — V7VE7 — position and weather